createdAt,value
2023-04-13T00:01:46.139Z,71.18
2023-04-13T00:05:13.881Z,71.27
2023-04-13T00:08:42.863Z,71.27
2023-04-13T00:12:11.121Z,71.36
2023-04-13T00:15:41.913Z,71.49
2023-04-13T00:19:09.097Z,71.50
2023-04-13T00:22:35.870Z,71.74
2023-04-13T00:26:03.145Z,71.51
2023-04-13T00:29:29.840Z,71.46
2023-04-13T00:32:56.930Z,71.65
2023-04-13T00:36:24.733Z,71.79
2023-04-13T00:39:51.892Z,71.77
2023-04-13T00:43:19.237Z,71.91
2023-04-13T00:46:46.534Z,71.86
2023-04-13T00:50:13.794Z,71.96
2023-04-13T00:53:41.592Z,72.14
2023-04-13T00:57:09.703Z,72.10
2023-04-13T01:00:39.044Z,71.87
2023-04-13T01:04:06.861Z,72.29
2023-04-13T01:07:41.608Z,72.28
2023-04-13T01:11:19.375Z,72.68
2023-04-13T01:14:56.882Z,72.99
2023-04-13T01:18:25.479Z,72.94
2023-04-13T01:21:54.739Z,72.82
2023-04-13T01:25:32.788Z,72.94
2023-04-13T01:29:00.529Z,73.10
2023-04-13T01:32:28.267Z,73.06
2023-04-13T01:35:56.462Z,72.92
2023-04-13T01:39:32.065Z,72.85
2023-04-13T01:43:07.069Z,72.85
2023-04-13T01:46:49.634Z,73.05
2023-04-13T01:50:39.353Z,72.88
2023-04-13T01:54:16.306Z,72.63
2023-04-13T01:57:47.329Z,72.97
2023-04-13T02:01:14.992Z,72.81
2023-04-13T02:04:41.949Z,72.76
2023-04-13T02:08:11.003Z,72.57
2023-04-13T02:11:44.141Z,72.75
2023-04-13T02:15:12.784Z,72.56
2023-04-13T02:18:41.180Z,72.64
2023-04-13T02:22:08.606Z,72.52
2023-04-13T02:25:35.865Z,72.52
2023-04-13T02:29:02.764Z,72.37
2023-04-13T02:32:31.565Z,72.43
2023-04-13T02:35:59.092Z,72.43
2023-04-13T02:39:26.539Z,72.50
2023-04-13T02:42:57.209Z,72.47
2023-04-13T02:46:23.810Z,72.60
2023-04-13T02:49:56.133Z,72.56
2023-04-13T02:53:31.097Z,72.61
2023-04-13T02:57:02.182Z,72.68
2023-04-13T03:00:30.478Z,72.68
2023-04-13T03:04:01.217Z,72.75
2023-04-13T03:07:29.487Z,72.66
2023-04-13T03:10:56.621Z,72.67
2023-04-13T03:14:23.986Z,72.66
2023-04-13T03:17:55.268Z,72.73
2023-04-13T03:21:24.519Z,72.92
2023-04-13T03:25:11.589Z,72.92
2023-04-13T03:28:39.153Z,72.95
2023-04-13T03:32:07.077Z,73.01
2023-04-13T03:35:36.004Z,73.17
2023-04-13T03:39:05.739Z,73.16
2023-04-13T03:42:35.624Z,72.99
2023-04-13T03:46:02.930Z,72.91
2023-04-13T03:49:32.058Z,73.07
2023-04-13T03:52:59.245Z,73.05
2023-04-13T03:56:27.481Z,73.14
2023-04-13T03:59:56.363Z,72.94
2023-04-13T04:03:41.070Z,72.91
2023-04-13T04:07:08.837Z,72.71
2023-04-13T04:10:36.031Z,72.92
2023-04-13T04:14:03.081Z,72.87
2023-04-13T04:17:30.814Z,72.80
2023-04-13T04:20:58.077Z,72.83
2023-04-13T04:24:27.850Z,72.88
2023-04-13T04:27:58.315Z,72.89
2023-04-13T04:31:25.395Z,72.85
2023-04-13T04:34:54.952Z,72.87
2023-04-13T04:38:24.391Z,73.00
2023-04-13T04:41:54.352Z,73.09
2023-04-13T04:45:23.402Z,72.96
2023-04-13T04:48:52.037Z,72.84
2023-04-13T04:52:21.418Z,72.91
2023-04-13T04:55:49.856Z,72.88
2023-04-13T04:59:26.951Z,72.84
2023-04-13T05:02:57.740Z,72.82
2023-04-13T05:06:25.069Z,72.74
2023-04-13T05:09:52.303Z,72.83
2023-04-13T05:13:19.213Z,72.92
2023-04-13T05:16:55.575Z,73.02
2023-04-13T05:20:29.944Z,73.02
2023-04-13T05:24:04.430Z,72.97
2023-04-13T05:27:32.171Z,72.94
2023-04-13T05:31:05.478Z,72.79
2023-04-13T05:34:35.904Z,72.72
2023-04-13T05:38:09.933Z,72.69
2023-04-13T05:41:37.742Z,72.70
2023-04-13T05:45:09.730Z,72.68
2023-04-13T05:48:42.037Z,72.68
2023-04-13T05:52:10.644Z,72.68
2023-04-13T05:55:47.467Z,72.66
2023-04-13T05:59:16.432Z,72.49
2023-04-13T06:02:44.220Z,72.39
2023-04-13T06:06:14.324Z,72.14
2023-04-13T06:09:43.673Z,72.36
2023-04-13T06:13:10.848Z,72.13
2023-04-13T06:16:38.363Z,71.99
2023-04-13T06:20:07.961Z,71.92
2023-04-13T06:23:34.885Z,71.84
2023-04-13T06:27:07.390Z,71.85
2023-04-13T06:30:35.307Z,71.52
2023-04-13T06:34:05.903Z,71.43
2023-04-13T06:37:36.072Z,71.27
2023-04-13T06:41:06.298Z,71.21
2023-04-13T06:44:35.804Z,70.76
2023-04-13T06:48:03.423Z,70.81
2023-04-13T06:51:32.978Z,70.53
2023-04-13T06:55:00.268Z,70.54
2023-04-13T06:58:33.561Z,70.43
2023-04-13T07:02:00.469Z,69.99
2023-04-13T07:05:27.739Z,69.85
2023-04-13T07:08:58.677Z,70.19
2023-04-13T07:12:26.893Z,70.17
2023-04-13T07:15:54.129Z,69.89
2023-04-13T07:19:23.821Z,69.78
2023-04-13T07:22:49.589Z,69.80
2023-04-13T07:26:18.344Z,69.67
2023-04-13T07:29:45.924Z,69.08
2023-04-13T07:33:16.219Z,68.55
2023-04-13T07:36:44.046Z,68.54
2023-04-13T07:40:13.085Z,68.04
2023-04-13T07:43:41.593Z,67.88
2023-04-13T07:47:09.796Z,67.77
2023-04-13T07:50:42.982Z,67.59
2023-04-13T07:54:14.567Z,67.45
2023-04-13T07:57:43.724Z,67.63
2023-04-13T08:01:11.394Z,67.09
2023-04-13T08:04:38.560Z,66.04
2023-04-13T08:08:06.951Z,65.81
2023-04-13T08:11:34.065Z,66.32
2023-04-13T08:15:05.218Z,66.03
2023-04-13T08:18:32.412Z,65.15
2023-04-13T08:22:00.451Z,64.43
2023-04-13T08:25:28.579Z,63.50
2023-04-13T08:28:57.626Z,61.77
2023-04-13T08:32:25.211Z,61.85
2023-04-13T08:35:52.099Z,61.86
2023-04-13T08:39:19.123Z,62.76
2023-04-13T08:42:47.651Z,62.09
2023-04-13T08:46:21.389Z,62.43
2023-04-13T08:49:51.515Z,62.81
2023-04-13T08:53:25.284Z,63.02
2023-04-13T08:56:52.876Z,63.28
2023-04-13T09:00:22.998Z,62.96
2023-04-13T09:03:55.577Z,63.11
2023-04-13T09:07:27.769Z,63.55
2023-04-13T09:10:59.025Z,63.98
2023-04-13T09:14:26.793Z,64.23
2023-04-13T09:17:54.162Z,64.36
2023-04-13T09:21:21.560Z,64.53
2023-04-13T09:24:48.744Z,64.14
2023-04-13T09:28:22.076Z,64.22
2023-04-13T09:31:49.700Z,64.39
2023-04-13T09:35:17.174Z,64.22
2023-04-13T09:38:46.701Z,63.62
2023-04-13T09:42:18.284Z,63.58
2023-04-13T09:45:45.660Z,63.47
2023-04-13T09:49:12.819Z,63.09
2023-04-13T09:52:39.777Z,62.44
2023-04-13T09:56:07.783Z,61.66
2023-04-13T09:59:35.717Z,60.61
2023-04-13T10:03:03.444Z,60.82
2023-04-13T10:06:31.948Z,60.34
2023-04-13T10:09:58.857Z,60.09
2023-04-13T10:13:31.761Z,59.38
2023-04-13T10:17:14.944Z,58.75
2023-04-13T10:20:42.772Z,58.85
2023-04-13T10:24:13.197Z,58.79
2023-04-13T10:27:42.721Z,58.87
2023-04-13T10:31:10.558Z,58.56
2023-04-13T10:34:39.927Z,58.02
2023-04-13T10:38:08.755Z,57.89
2023-04-13T10:41:36.874Z,57.20
2023-04-13T10:45:04.365Z,56.22
2023-04-13T10:48:31.207Z,56.72
2023-04-13T10:51:58.012Z,56.76
2023-04-13T10:55:27.308Z,56.06
2023-04-13T10:58:57.521Z,55.54
2023-04-13T11:02:27.850Z,55.71
2023-04-13T11:06:00.331Z,55.26
2023-04-13T11:09:27.346Z,54.18
2023-04-13T11:12:55.332Z,54.40
2023-04-13T11:16:22.176Z,53.74
2023-04-13T11:19:53.729Z,53.55
2023-04-13T11:23:24.055Z,53.17
2023-04-13T11:26:51.291Z,52.70
2023-04-13T11:30:25.203Z,52.47
2023-04-13T11:33:55.901Z,53.10
2023-04-13T11:37:28.414Z,52.37
2023-04-13T11:44:37.408Z,52.08
2023-04-13T11:48:08.187Z,52.26
2023-04-13T11:51:36.243Z,51.77
2023-04-13T11:55:18.930Z,51.56
2023-04-13T11:58:54.451Z,51.88
2023-04-13T12:02:30.554Z,52.36
2023-04-13T12:06:07.924Z,52.61
2023-04-13T12:13:24.007Z,52.99
2023-04-13T12:20:40.236Z,53.21
2023-04-13T12:24:11.453Z,53.69
2023-04-13T12:27:43.990Z,54.09
2023-04-13T12:31:12.299Z,54.01
2023-04-13T12:34:39.252Z,54.52
2023-04-13T12:38:07.301Z,54.77
2023-04-13T12:41:34.652Z,54.69
2023-04-13T12:45:01.606Z,54.89
2023-04-13T12:48:29.615Z,54.91
2023-04-13T12:51:56.465Z,55.21
2023-04-13T12:55:23.492Z,55.60
2023-04-13T12:58:50.315Z,54.42
2023-04-13T13:02:17.505Z,54.22
2023-04-13T13:05:44.812Z,54.44
2023-04-13T13:09:11.939Z,54.76
2023-04-13T13:12:39.020Z,54.62
2023-04-13T13:16:06.770Z,54.43
2023-04-13T13:19:33.744Z,54.26
2023-04-13T13:23:00.605Z,54.21
2023-04-13T13:26:36.653Z,53.38
2023-04-13T13:30:14.193Z,53.72
2023-04-13T13:33:41.002Z,53.81
2023-04-13T13:37:07.895Z,53.77
2023-04-13T13:40:34.904Z,54.08
2023-04-13T13:44:02.233Z,54.66
2023-04-13T13:47:29.352Z,54.87
2023-04-13T13:50:56.536Z,54.74
2023-04-13T13:54:24.515Z,54.92
2023-04-13T13:57:51.400Z,55.23
2023-04-13T14:01:18.667Z,54.87
2023-04-13T14:04:45.654Z,54.66
2023-04-13T14:08:12.736Z,54.79
2023-04-13T14:11:40.931Z,54.22
2023-04-13T14:15:09.944Z,53.51
2023-04-13T14:18:36.970Z,53.45
2023-04-13T14:22:04.030Z,52.82
2023-04-13T14:25:30.822Z,51.24
2023-04-13T14:29:00.169Z,51.98
2023-04-13T14:32:27.567Z,51.45
2023-04-13T14:35:54.426Z,49.64
2023-04-13T14:39:21.245Z,48.55
2023-04-13T14:42:48.135Z,49.36
2023-04-13T14:46:15.775Z,49.92
2023-04-13T14:49:43.287Z,49.89
2023-04-13T14:53:10.117Z,48.46
2023-04-13T14:56:37.326Z,48.60
2023-04-13T15:00:07.360Z,50.16
2023-04-13T15:03:34.519Z,50.49
2023-04-13T15:07:02.232Z,50.73
2023-04-13T15:10:30.290Z,50.49
2023-04-13T15:13:57.081Z,51.31
2023-04-13T15:17:23.908Z,51.18
2023-04-13T15:20:50.824Z,50.90
2023-04-13T15:24:17.893Z,50.71
2023-04-13T15:27:44.686Z,50.61
2023-04-13T15:31:11.612Z,51.04
2023-04-13T15:34:38.390Z,51.45
2023-04-13T15:38:06.439Z,52.31
2023-04-13T15:41:35.244Z,52.54
2023-04-13T15:45:04.611Z,52.79
2023-04-13T15:48:35.516Z,53.30
2023-04-13T15:52:05.875Z,53.25
2023-04-13T15:55:37.041Z,52.74
2023-04-13T15:59:05.916Z,53.34
2023-04-13T16:02:34.002Z,53.63
2023-04-13T16:06:03.336Z,53.94
2023-04-13T16:09:38.031Z,54.49
2023-04-13T16:13:19.654Z,54.61
2023-04-13T16:16:54.231Z,54.51
2023-04-13T16:20:27.643Z,54.80
2023-04-13T16:23:58.269Z,54.98
2023-04-13T16:27:30.120Z,55.27
2023-04-13T16:31:07.800Z,55.40
2023-04-13T16:34:44.526Z,55.63
2023-04-13T16:38:12.462Z,56.04
2023-04-13T16:41:39.569Z,56.39
2023-04-13T16:45:07.704Z,57.00
2023-04-13T16:48:34.651Z,57.49
2023-04-13T16:52:02.022Z,58.04
2023-04-13T16:55:32.513Z,58.56
2023-04-13T16:59:02.422Z,59.02
2023-04-13T17:02:31.776Z,59.46
2023-04-13T17:06:02.615Z,59.94
2023-04-13T17:09:33.491Z,60.45
2023-04-13T17:13:05.722Z,61.00
2023-04-13T17:16:32.841Z,61.18
2023-04-13T17:20:10.368Z,61.64
2023-04-13T17:23:38.912Z,61.51
2023-04-13T17:27:11.490Z,62.12
2023-04-13T17:30:40.814Z,62.51
2023-04-13T17:34:10.075Z,63.18
2023-04-13T17:37:40.272Z,63.69
2023-04-13T17:41:08.075Z,64.12
2023-04-13T17:44:38.472Z,64.27
2023-04-13T17:48:07.663Z,64.53
2023-04-13T17:51:36.953Z,64.83
2023-04-13T17:55:08.420Z,65.54
2023-04-13T17:58:38.724Z,66.00
2023-04-13T18:02:09.662Z,66.20
2023-04-13T18:05:38.392Z,66.38
2023-04-13T18:09:09.274Z,67.11
2023-04-13T18:12:43.768Z,67.26
2023-04-13T18:16:13.955Z,67.41
2023-04-13T18:19:44.536Z,67.63
2023-04-13T18:23:12.065Z,67.81
2023-04-13T18:26:40.641Z,68.29
2023-04-13T18:30:10.204Z,68.91
2023-04-13T18:33:37.956Z,69.54
2023-04-13T18:37:06.399Z,69.87
2023-04-13T18:40:34.573Z,70.45
2023-04-13T18:44:02.301Z,70.75
2023-04-13T18:47:29.859Z,70.97
2023-04-13T18:56:15.535Z,71.36
2023-04-13T18:59:44.240Z,71.37
2023-04-13T19:03:12.363Z,71.48
2023-04-13T19:06:40.312Z,71.73
2023-04-13T19:10:09.659Z,72.08
2023-04-13T19:13:36.995Z,72.10
2023-04-13T19:17:05.734Z,72.34
2023-04-13T19:20:33.158Z,72.57
2023-04-13T19:24:00.119Z,72.73
2023-04-13T19:27:28.901Z,72.93
2023-04-13T19:30:56.294Z,73.02
2023-04-13T19:34:23.513Z,73.17
2023-04-13T19:37:50.436Z,73.54
2023-04-13T19:41:17.219Z,73.82
2023-04-13T19:44:44.193Z,74.13
2023-04-13T19:48:11.651Z,74.31
2023-04-13T19:51:38.530Z,74.43
2023-04-13T19:55:06.322Z,74.84
2023-04-13T19:58:33.565Z,75.08
2023-04-13T20:02:00.848Z,76.49
2023-04-13T20:05:28.079Z,77.56
2023-04-13T20:08:55.022Z,77.92
2023-04-13T20:12:22.000Z,77.68
2023-04-13T20:15:49.407Z,77.82
2023-04-13T20:19:16.987Z,77.02
2023-04-13T20:22:45.483Z,76.83
2023-04-13T20:26:12.373Z,76.81
2023-04-13T20:29:39.199Z,77.02
2023-04-13T20:33:07.355Z,77.05
2023-04-13T20:36:34.627Z,77.13
2023-04-13T20:40:02.666Z,77.04
2023-04-13T20:43:30.495Z,77.05
2023-04-13T20:46:57.533Z,77.09
2023-04-13T20:50:27.604Z,77.16
2023-04-13T20:53:54.401Z,77.22
2023-04-13T20:57:21.434Z,77.32
2023-04-13T21:00:49.018Z,77.40
2023-04-13T21:04:16.071Z,77.41
2023-04-13T21:07:43.742Z,77.46
2023-04-13T21:11:10.737Z,77.49
2023-04-13T21:14:37.622Z,77.53
2023-04-13T21:18:04.754Z,77.69
2023-04-13T21:21:34.497Z,77.70
2023-04-13T21:25:05.726Z,77.77
2023-04-13T21:28:34.729Z,78.07
2023-04-13T21:32:02.595Z,78.18
2023-04-13T21:35:30.890Z,78.28
2023-04-13T21:38:57.842Z,78.69
2023-04-13T21:42:24.916Z,78.97
2023-04-13T21:45:51.809Z,79.28
2023-04-13T21:49:18.906Z,79.55
2023-04-13T21:52:45.937Z,79.87
2023-04-13T21:56:12.972Z,79.87
2023-04-13T21:59:40.139Z,79.99
2023-04-13T22:03:07.211Z,80.12
2023-04-13T22:06:34.531Z,80.26
2023-04-13T22:10:02.162Z,80.57
2023-04-13T22:13:29.654Z,80.61
2023-04-13T22:16:56.585Z,80.95
2023-04-13T22:20:23.433Z,81.36
2023-04-13T22:23:50.339Z,81.56
2023-04-13T22:27:17.247Z,81.22
2023-04-13T22:30:44.900Z,81.71
2023-04-13T22:34:12.000Z,82.24
2023-04-13T22:37:38.815Z,82.60
2023-04-13T22:41:09.817Z,83.22
2023-04-13T22:44:37.270Z,82.99
2023-04-13T22:48:04.898Z,83.21
2023-04-13T22:51:38.340Z,83.47
2023-04-13T22:55:05.701Z,83.76
2023-04-13T22:58:32.516Z,84.20
2023-04-13T23:02:01.151Z,85.06
2023-04-13T23:05:28.398Z,84.84
2023-04-13T23:08:57.547Z,84.60
2023-04-13T23:12:24.361Z,85.59
2023-04-13T23:15:51.205Z,86.30
2023-04-13T23:19:19.600Z,86.69
2023-04-13T23:22:46.447Z,87.17
2023-04-13T23:26:13.503Z,88.29
2023-04-13T23:29:45.461Z,89.04
2023-04-13T23:33:12.296Z,88.48
2023-04-13T23:36:39.267Z,89.16
2023-04-13T23:40:07.483Z,90.12
2023-04-13T23:43:34.285Z,90.15
2023-04-13T23:47:01.217Z,90.94
2023-04-13T23:50:28.131Z,90.90
2023-04-13T23:53:54.939Z,91.29
2023-04-13T23:57:22.512Z,91.17
